Time;durP1;ratioP1;P1;durP2;ratioP2;P2;SDS_P1;SDS_P2;PMS_P1;PMS_P2;Temp;Humidity;BMP_temperature;BMP_pressure;BME280_temperature;BME280_humidity;BME280_pressure;Samples;Min_cycle;Max_cycle;Signal;HPM_P1;HPM_P2
2021/08/19 00:00:51;;;;;;;5.57;4.97;;;18.60;99.90;;;;;;5017122;28;20449;-41
2021/08/19 00:03:17;;;;;;;5.10;4.60;;;18.60;99.90;;;;;;5016905;28;20484;-42
2021/08/19 00:05:44;;;;;;;8.07;4.63;;;18.60;99.90;;;;;;5016669;28;20477;-42
2021/08/19 00:08:11;;;;;;;6.90;4.23;;;18.70;99.90;;;;;;5016856;28;20445;-41
2021/08/19 00:10:38;;;;;;;7.97;4.73;;;18.60;99.90;;;;;;5017414;28;20531;-42
2021/08/19 00:13:04;;;;;;;4.50;3.73;;;18.60;99.90;;;;;;5016709;28;20917;-42
2021/08/19 00:15:33;;;;;;;3.90;3.20;;;18.50;99.90;;;;;;5016691;28;20449;-42
2021/08/19 00:18:00;;;;;;;6.37;5.27;;;18.60;99.90;;;;;;5017224;28;20511;-41
2021/08/19 00:20:27;;;;;;;5.40;4.90;;;18.60;99.90;;;;;;5017334;28;20475;-43
2021/08/19 00:22:54;;;;;;;5.00;4.50;;;18.60;99.90;;;;;;5015515;28;20571;-42
2021/08/19 00:25:20;;;;;;;6.17;5.13;;;18.50;99.90;;;;;;5015600;28;20937;-45
2021/08/19 00:27:47;;;;;;;6.03;5.43;;;18.60;99.90;;;;;;5015223;28;20894;-48
2021/08/19 00:30:14;;;;;;;9.07;4.83;;;18.50;99.90;;;;;;5015209;28;20448;-43
2021/08/19 00:32:42;;;;;;;6.50;5.30;;;18.50;99.90;;;;;;5014861;28;20515;-45
2021/08/19 00:35:09;;;;;;;15.03;6.33;;;18.50;99.90;;;;;;5015428;28;20453;-43
2021/08/19 00:37:37;;;;;;;7.43;6.27;;;18.60;99.90;;;;;;5015144;28;20919;-41
2021/08/19 00:40:06;;;;;;;6.87;6.17;;;18.50;99.90;;;;;;5015245;28;20445;-43
2021/08/19 00:42:33;;;;;;;6.40;5.77;;;18.50;99.90;;;;;;5015278;28;20929;-41
2021/08/19 00:45:00;;;;;;;7.60;6.03;;;18.50;99.90;;;;;;5015314;28;20530;-41
2021/08/19 00:47:27;;;;;;;8.10;6.53;;;18.50;99.90;;;;;;5015203;28;20449;-43
2021/08/19 00:50:01;;;;;;;8.37;7.50;;;18.50;99.90;;;;;;5015184;28;20461;-45
2021/08/19 00:52:29;;;;;;;8.30;7.00;;;18.60;99.90;;;;;;5015263;28;20441;-47
2021/08/19 00:54:56;;;;;;;8.87;6.90;;;18.60;99.90;;;;;;5014746;28;20441;-41
2021/08/19 00:57:23;;;;;;;6.77;6.07;;;18.60;99.90;;;;;;5014637;28;20458;-47
2021/08/19 00:59:52;;;;;;;7.70;6.73;;;18.60;99.90;;;;;;5014668;28;20524;-44
2021/08/19 01:02:20;;;;;;;10.33;6.60;;;18.60;99.90;;;;;;5014221;28;21039;-44
2021/08/19 01:04:47;;;;;;;8.30;6.97;;;18.60;99.90;;;;;;5014416;28;20503;-42
2021/08/19 01:07:17;;;;;;;7.03;6.33;;;18.60;99.90;;;;;;5014564;28;20449;-41
2021/08/19 01:09:44;;;;;;;7.93;6.30;;;18.50;99.90;;;;;;5014539;28;20484;-42
2021/08/19 01:12:13;;;;;;;8.40;6.50;;;18.60;99.90;;;;;;5014822;28;20524;-42
2021/08/19 01:14:41;;;;;;;10.07;8.97;;;18.60;99.90;;;;;;5014498;28;20457;-44
2021/08/19 01:17:09;;;;;;;7.57;6.53;;;18.60;99.90;;;;;;5014567;28;20531;-45
2021/08/19 01:19:36;;;;;;;9.17;7.83;;;18.50;99.90;;;;;;5014583;28;20453;-45
2021/08/19 01:22:03;;;;;;;8.80;7.40;;;18.60;99.90;;;;;;5014346;28;20480;-43
2021/08/19 01:24:31;;;;;;;7.93;6.67;;;18.60;99.90;;;;;;5014500;28;20461;-45
2021/08/19 01:26:59;;;;;;;7.17;6.47;;;18.60;99.90;;;;;;5014640;28;20778;-44
2021/08/19 01:29:27;;;;;;;9.47;7.43;;;18.60;99.90;;;;;;5014419;28;20456;-44
2021/08/19 01:31:58;;;;;;;9.67;7.07;;;18.60;99.90;;;;;;5014468;28;20456;-44
2021/08/19 01:34:25;;;;;;;7.73;6.67;;;18.60;99.90;;;;;;5014371;28;20457;-41
2021/08/19 01:36:52;;;;;;;9.03;7.73;;;18.60;99.90;;;;;;5014440;28;20447;-47
2021/08/19 01:39:18;;;;;;;8.60;7.33;;;18.50;99.90;;;;;;5014156;28;20440;-44
2021/08/19 01:41:45;;;;;;;8.83;7.60;;;18.50;99.90;;;;;;5014276;28;20506;-46
2021/08/19 01:44:12;;;;;;;9.80;8.27;;;18.50;99.90;;;;;;5014234;28;20461;-46
2021/08/19 01:46:40;;;;;;;9.73;7.53;;;18.50;99.90;;;;;;5014141;28;20760;-44
2021/08/19 01:49:07;;;;;;;7.93;7.13;;;18.50;99.90;;;;;;5014414;28;20453;-41
2021/08/19 01:51:34;;;;;;;7.93;7.10;;;18.50;99.90;;;;;;5014054;28;20942;-44
2021/08/19 01:54:01;;;;;;;8.13;7.20;;;18.50;99.90;;;;;;5013901;28;20480;-46
2021/08/19 01:56:28;;;;;;;9.33;7.30;;;18.50;99.90;;;;;;5014574;28;20499;-44
2021/08/19 01:58:55;;;;;;;8.30;7.43;;;18.50;99.90;;;;;;5014096;28;20449;-44
2021/08/19 02:01:25;;;;;;;9.67;7.50;;;18.50;99.90;;;;;;5014155;28;20784;-41
2021/08/19 02:03:54;;;;;;;7.33;6.53;;;18.50;99.90;;;;;;5013750;28;20872;-41
2021/08/19 02:06:24;;;;;;;9.17;7.10;;;18.50;99.90;;;;;;5014314;28;20513;-44
2021/08/19 02:08:50;;;;;;;9.37;6.60;;;18.50;99.90;;;;;;5014014;28;20954;-44
2021/08/19 02:11:19;;;;;;;8.23;6.93;;;18.50;99.90;;;;;;5013834;28;20457;-43
2021/08/19 02:13:45;;;;;;;6.23;5.33;;;18.50;99.90;;;;;;5014321;28;20441;-42
2021/08/19 02:16:12;;;;;;;8.57;6.40;;;18.40;99.90;;;;;;5017848;28;20510;-47
2021/08/19 02:18:39;;;;;;;8.60;6.70;;;18.40;99.90;;;;;;5020130;28;20853;-46
2021/08/19 02:21:07;;;;;;;7.27;6.57;;;18.40;99.90;;;;;;5054686;28;20459;-43
2021/08/19 02:23:34;;;;;;;6.47;5.87;;;18.40;99.90;;;;;;5038932;28;20480;-45
2021/08/19 02:26:01;;;;;;;7.53;6.50;;;18.40;99.90;;;;;;5038969;28;20463;-43
2021/08/19 02:28:28;;;;;;;6.80;5.70;;;18.40;99.90;;;;;;5038674;28;20439;-41
2021/08/19 02:30:54;;;;;;;7.40;6.53;;;18.40;99.90;;;;;;5038915;28;20478;-42
2021/08/19 02:33:21;;;;;;;7.70;6.37;;;18.30;99.90;;;;;;5038495;28;20502;-44
2021/08/19 02:35:48;;;;;;;6.57;5.87;;;18.40;99.90;;;;;;5038637;28;20444;-46
2021/08/19 02:38:16;;;;;;;7.93;5.93;;;18.30;99.90;;;;;;5038673;28;20522;-45
2021/08/19 02:40:42;;;;;;;7.17;6.07;;;18.30;99.90;;;;;;5038714;28;20436;-45
2021/08/19 02:43:09;;;;;;;9.60;6.83;;;18.30;99.90;;;;;;5038575;28;20513;-41
2021/08/19 02:45:37;;;;;;;7.33;6.63;;;18.30;99.90;;;;;;5038639;28;20448;-44
2021/08/19 02:48:04;;;;;;;7.70;6.67;;;18.30;99.90;;;;;;5038458;28;20482;-46
2021/08/19 02:50:30;;;;;;;8.17;6.40;;;18.20;99.90;;;;;;5038408;28;20521;-41
2021/08/19 02:52:58;;;;;;;7.83;6.90;;;18.30;99.90;;;;;;5038607;28;20444;-42
2021/08/19 02:55:26;;;;;;;10.50;6.50;;;18.20;99.90;;;;;;5038597;28;20448;-42
2021/08/19 02:57:53;;;;;;;7.33;6.63;;;18.20;99.90;;;;;;5038072;28;20456;-47
2021/08/19 03:00:19;;;;;;;6.63;4.80;;;18.10;99.90;;;;;;5039399;28;20444;-42
2021/08/19 03:02:46;;;;;;;8.40;5.50;;;18.10;99.90;;;;;;5038153;28;20792;-42
2021/08/19 03:05:12;;;;;;;6.40;5.37;;;18.00;99.90;;;;;;5038127;28;20541;-42
2021/08/19 03:07:39;;;;;;;7.30;5.80;;;18.00;99.90;;;;;;5038884;28;20467;-42
2021/08/19 03:10:08;;;;;;;6.00;5.23;;;18.00;99.90;;;;;;5038025;28;20452;-49
2021/08/19 03:12:36;;;;;;;8.07;6.20;;;18.10;99.90;;;;;;5037854;28;20471;-46
2021/08/19 03:15:03;;;;;;;5.90;5.30;;;18.10;99.90;;;;;;5037771;28;20440;-41
2021/08/19 03:17:29;;;;;;;7.67;6.03;;;18.10;99.90;;;;;;5037889;28;20531;-42
2021/08/19 03:19:56;;;;;;;8.97;6.07;;;18.10;99.90;;;;;;5038304;28;20525;-42
2021/08/19 03:22:23;;;;;;;6.83;6.00;;;18.10;99.90;;;;;;5038395;28;20448;-45
2021/08/19 03:24:50;;;;;;;7.03;6.07;;;18.10;99.90;;;;;;5037505;28;20936;-49
2021/08/19 03:27:16;;;;;;;7.90;6.17;;;18.10;99.90;;;;;;5037181;28;20585;-44
2021/08/19 03:29:44;;;;;;;8.30;6.77;;;18.10;99.90;;;;;;5037400;28;20521;-44
2021/08/19 03:32:11;;;;;;;8.47;7.30;;;18.10;99.90;;;;;;5037436;28;20979;-42
2021/08/19 03:34:38;;;;;;;8.20;6.90;;;18.10;99.90;;;;;;5037220;28;20448;-45
2021/08/19 03:37:07;;;;;;;8.43;7.50;;;18.10;99.90;;;;;;5037506;28;20448;-45
2021/08/19 03:39:35;;;;;;;7.10;6.40;;;18.10;99.90;;;;;;5037437;28;20452;-44
2021/08/19 03:42:02;;;;;;;7.53;6.40;;;18.10;99.90;;;;;;5037462;28;20448;-44
2021/08/19 03:44:28;;;;;;;7.00;6.27;;;18.10;99.90;;;;;;5036965;28;20476;-41
2021/08/19 03:46:56;;;;;;;8.83;6.87;;;18.10;99.90;;;;;;5037638;28;20879;-42
2021/08/19 03:49:23;;;;;;;7.23;6.53;;;18.00;99.90;;;;;;5037472;28;20517;-42
2021/08/19 03:51:50;;;;;;;10.10;7.50;;;18.00;99.90;;;;;;5037413;28;20839;-45
2021/08/19 03:54:17;;;;;;;8.67;6.50;;;18.00;99.90;;;;;;5037379;28;20452;-43
2021/08/19 03:56:43;;;;;;;7.90;6.50;;;18.00;99.90;;;;;;5037012;28;20452;-43
2021/08/19 03:59:10;;;;;;;7.70;6.20;;;18.00;99.90;;;;;;5037722;28;20582;-46
2021/08/19 04:01:38;;;;;;;6.77;6.00;;;18.00;99.90;;;;;;5036715;28;20809;-46
2021/08/19 04:04:06;;;;;;;7.13;6.00;;;18.00;99.90;;;;;;5036739;28;21185;-46
2021/08/19 04:06:32;;;;;;;7.53;5.80;;;18.00;99.90;;;;;;5037222;28;20499;-42
2021/08/19 04:08:59;;;;;;;7.40;5.43;;;17.90;99.90;;;;;;5036960;28;20444;-44
2021/08/19 04:11:26;;;;;;;6.60;5.53;;;17.90;99.90;;;;;;5037070;28;20460;-44
2021/08/19 04:13:53;;;;;;;8.20;6.83;;;18.00;99.90;;;;;;5037027;28;20459;-42
2021/08/19 04:16:20;;;;;;;7.60;5.63;;;17.90;99.90;;;;;;5037637;28;20456;-41
2021/08/19 04:18:46;;;;;;;6.10;5.50;;;17.80;99.90;;;;;;5037266;28;20555;-46
2021/08/19 04:21:15;;;;;;;8.50;6.00;;;17.80;99.90;;;;;;5020878;28;20452;-43
2021/08/19 04:23:43;;;;;;;6.63;5.17;;;17.80;99.90;;;;;;5017178;28;20542;-43
2021/08/19 04:26:10;;;;;;;6.03;4.30;;;17.80;99.90;;;;;;5016791;28;20456;-41
2021/08/19 04:28:37;;;;;;;4.50;4.03;;;17.70;99.90;;;;;;5016683;28;20933;-46
2021/08/19 04:31:04;;;;;;;3.53;3.23;;;17.70;99.90;;;;;;5017100;28;20825;-41
2021/08/19 04:33:31;;;;;;;4.57;3.90;;;17.70;99.90;;;;;;5017262;28;20507;-41
2021/08/19 04:35:58;;;;;;;4.57;3.43;;;17.60;99.90;;;;;;5017236;28;20456;-45
2021/08/19 04:38:26;;;;;;;3.80;3.40;;;17.70;99.90;;;;;;5015937;28;20453;-44
2021/08/19 04:40:52;;;;;;;4.93;4.43;;;17.60;99.90;;;;;;5017125;28;20820;-44
2021/08/19 04:43:20;;;;;;;10.50;5.30;;;17.70;99.90;;;;;;5016816;28;20473;-45
2021/08/19 04:45:46;;;;;;;4.90;3.77;;;17.60;99.90;;;;;;5015703;28;20453;-41
2021/08/19 04:48:13;;;;;;;4.57;4.03;;;17.60;99.90;;;;;;5015047;28;20449;-43
2021/08/19 04:50:40;;;;;;;4.77;4.27;;;17.70;99.90;;;;;;5015130;28;20518;-44
2021/08/19 04:53:07;;;;;;;7.30;4.00;;;17.60;99.90;;;;;;5015044;28;20463;-45
2021/08/19 04:55:35;;;;;;;5.50;3.60;;;17.60;99.90;;;;;;5014949;28;20449;-44
2021/08/19 04:58:01;;;;;;;4.73;3.70;;;17.60;99.90;;;;;;5015118;28;20452;-42
2021/08/19 05:00:28;;;;;;;4.57;4.03;;;17.50;99.90;;;;;;5015216;28;20475;-43
2021/08/19 05:02:55;;;;;;;5.50;4.60;;;17.50;99.90;;;;;;5014809;28;20449;-45
2021/08/19 05:05:21;;;;;;;6.40;5.47;;;17.50;99.90;;;;;;5014974;28;20477;-42
2021/08/19 05:07:48;;;;;;;7.87;5.20;;;17.50;99.90;;;;;;5015090;28;20746;-41
2021/08/19 05:10:16;;;;;;;7.70;6.20;;;17.50;99.90;;;;;;5015036;28;20469;-47
2021/08/19 05:12:44;;;;;;;9.40;6.50;;;17.50;99.90;;;;;;5016113;28;20969;-43
2021/08/19 05:15:12;;;;;;;7.20;5.40;;;17.40;99.90;;;;;;5016220;28;20445;-45
2021/08/19 05:17:38;;;;;;;6.20;5.30;;;17.50;99.90;;;;;;5016609;28;20823;-42
2021/08/19 05:20:06;;;;;;;5.67;5.07;;;17.50;99.90;;;;;;5016060;28;20483;-47
2021/08/19 05:22:33;;;;;;;6.37;5.20;;;17.50;99.90;;;;;;5014963;28;20762;-45
2021/08/19 05:25:02;;;;;;;7.80;6.47;;;17.50;99.90;;;;;;5018714;28;20481;-43
2021/08/19 05:27:28;;;;;;;12.33;6.40;;;17.50;99.90;;;;;;5017854;28;20783;-45
2021/08/19 05:29:56;;;;;;;8.10;6.70;;;17.50;99.90;;;;;;5017612;28;20468;-41
2021/08/19 05:32:23;;;;;;;7.03;5.90;;;17.40;99.90;;;;;;5018071;28;20518;-42
2021/08/19 05:34:50;;;;;;;8.43;5.90;;;17.40;99.90;;;;;;5018223;28;20442;-43
2021/08/19 05:37:19;;;;;;;9.30;7.10;;;17.50;99.90;;;;;;5017688;28;20506;-47
2021/08/19 05:39:45;;;;;;;8.00;6.17;;;17.50;99.90;;;;;;5017233;28;20884;-46
2021/08/19 05:42:12;;;;;;;8.20;5.50;;;17.50;99.90;;;;;;5018096;28;20449;-42
2021/08/19 05:44:39;;;;;;;6.20;5.27;;;17.60;99.90;;;;;;5017652;28;20492;-42
2021/08/19 05:47:07;;;;;;;8.57;6.30;;;17.50;99.90;;;;;;5019353;28;20455;-44
2021/08/19 05:49:35;;;;;;;6.47;5.80;;;17.50;99.90;;;;;;5037380;28;20912;-43
2021/08/19 05:52:02;;;;;;;8.50;6.63;;;17.60;99.90;;;;;;5037260;28;20798;-44
2021/08/19 05:54:29;;;;;;;6.57;5.93;;;17.60;99.90;;;;;;5037577;28;20444;-42
2021/08/19 05:56:55;;;;;;;7.37;5.50;;;17.60;99.90;;;;;;5036132;28;20448;-43
2021/08/19 05:59:22;;;;;;;8.33;5.20;;;17.60;99.90;;;;;;5035594;28;20511;-43
2021/08/19 06:01:49;;;;;;;8.60;5.03;;;17.70;99.90;;;;;;5035617;28;20513;-43
2021/08/19 06:04:18;;;;;;;5.97;5.37;;;17.60;99.90;;;;;;5035435;28;20484;-46
2021/08/19 06:06:44;;;;;;;5.93;5.00;;;17.60;99.90;;;;;;5035557;28;20846;-44
2021/08/19 06:09:11;;;;;;;5.63;5.03;;;17.70;99.90;;;;;;5035304;28;20448;-42
2021/08/19 06:11:38;;;;;;;7.13;5.30;;;17.70;99.90;;;;;;5035427;28;20444;-42
2021/08/19 06:14:05;;;;;;;7.13;5.23;;;17.70;99.90;;;;;;5036699;28;20475;-46
2021/08/19 06:16:32;;;;;;;5.87;4.60;;;17.70;99.90;;;;;;5036836;28;20456;-46
2021/08/19 06:19:00;;;;;;;6.57;4.93;;;17.70;99.90;;;;;;5037602;28;20792;-42
2021/08/19 06:21:28;;;;;;;11.50;5.90;;;17.70;99.90;;;;;;5036193;28;20552;-43
2021/08/19 06:23:54;;;;;;;8.27;5.30;;;17.70;99.90;;;;;;5035510;28;21249;-44
2021/08/19 06:26:21;;;;;;;6.47;5.13;;;17.80;99.90;;;;;;5035240;28;20464;-42
2021/08/19 06:28:48;;;;;;;6.10;5.20;;;17.70;99.90;;;;;;5035310;28;20452;-46
2021/08/19 06:31:14;;;;;;;7.60;4.53;;;17.80;99.90;;;;;;5035146;28;20456;-41
2021/08/19 06:33:41;;;;;;;7.53;5.40;;;17.80;99.90;;;;;;5035047;28;20506;-40
2021/08/19 06:36:08;;;;;;;7.47;5.30;;;17.80;99.90;;;;;;5035644;28;20440;-48
2021/08/19 06:38:36;;;;;;;9.53;5.97;;;17.90;99.90;;;;;;5035071;28;20517;-42
2021/08/19 06:41:02;;;;;;;7.90;5.73;;;17.80;99.90;;;;;;5035136;28;20456;-43
2021/08/19 06:43:29;;;;;;;9.03;6.90;;;17.80;99.90;;;;;;5034829;28;20459;-42
2021/08/19 06:45:56;;;;;;;8.63;5.87;;;17.80;99.90;;;;;;5029033;28;20472;-44
2021/08/19 06:48:22;;;;;;;7.13;5.23;;;17.80;99.90;;;;;;5035283;28;20531;-41
2021/08/19 06:50:49;;;;;;;9.30;5.30;;;17.90;99.90;;;;;;5035258;28;20464;-44
2021/08/19 06:53:16;;;;;;;9.20;6.40;;;17.90;99.90;;;;;;5034695;28;20452;-42
2021/08/19 06:55:44;;;;;;;8.20;6.63;;;18.00;99.90;;;;;;5034867;28;20503;-45
2021/08/19 06:58:10;;;;;;;7.50;5.43;;;18.10;99.90;;;;;;5035159;28;20511;-42
2021/08/19 07:00:37;;;;;;;11.63;5.10;;;18.20;99.90;;;;;;5035089;28;20533;-42
2021/08/19 07:03:04;;;;;;;6.77;5.47;;;18.20;99.90;;;;;;5038772;28;20452;-43
2021/08/19 07:05:30;;;;;;;5.57;4.97;;;18.20;99.90;;;;;;5038478;28;20491;-41
2021/08/19 07:07:59;;;;;;;6.97;5.50;;;18.20;99.90;;;;;;5028947;28;20484;-41
2021/08/19 07:10:26;;;;;;;6.87;5.37;;;18.20;99.90;;;;;;5021618;28;20926;-47
2021/08/19 07:12:54;;;;;;;6.40;5.07;;;18.20;99.90;;;;;;5024034;28;20445;-45
2021/08/19 07:15:21;;;;;;;6.60;5.80;;;18.20;99.90;;;;;;5029783;28;20908;-49
2021/08/19 07:17:47;;;;;;;6.47;4.93;;;18.20;99.90;;;;;;5029666;28;20460;-45
2021/08/19 07:20:14;;;;;;;9.40;5.97;;;18.20;99.90;;;;;;5030436;28;20968;-43
2021/08/19 07:22:44;;;;;;;11.30;5.97;;;18.30;99.90;;;;;;5026305;28;20445;-41
2021/08/19 07:25:12;;;;;;;7.77;4.70;;;18.30;99.90;;;;;;5028814;28;20488;-43
2021/08/19 07:27:39;;;;;;;6.73;5.17;;;18.30;99.90;;;;;;5031572;28;20483;-41
2021/08/19 07:30:08;;;;;;;7.03;4.50;;;18.30;99.90;;;;;;5029256;28;20444;-41
2021/08/19 07:32:35;;;;;;;9.30;5.73;;;18.30;99.90;;;;;;5026480;28;20436;-44
2021/08/19 07:35:02;;;;;;;8.50;5.70;;;18.30;99.90;;;;;;5027600;28;20770;-46
2021/08/19 07:37:29;;;;;;;7.03;5.53;;;18.30;99.90;;;;;;5028323;28;20902;-46
2021/08/19 07:39:56;;;;;;;7.37;5.63;;;18.40;99.90;;;;;;5037658;28;20463;-44
2021/08/19 07:42:23;;;;;;;7.37;6.50;;;18.50;99.90;;;;;;5039395;28;20444;-44
2021/08/19 07:44:50;;;;;;;7.53;6.60;;;18.40;99.90;;;;;;5038206;28;20480;-42
2021/08/19 07:47:20;;;;;;;10.33;5.67;;;18.40;99.90;;;;;;5037629;28;20452;-40
2021/08/19 07:49:47;;;;;;;8.03;4.50;;;18.40;99.90;;;;;;5037513;28;20456;-40
2021/08/19 07:52:14;;;;;;;12.20;5.40;;;18.30;99.90;;;;;;5028497;28;20864;-40
2021/08/19 07:54:40;;;;;;;5.23;4.63;;;18.30;99.90;;;;;;5046996;28;20476;-40
2021/08/19 07:57:07;;;;;;;10.00;6.00;;;18.40;99.90;;;;;;5029258;28;20496;-41
2021/08/19 07:59:34;;;;;;;8.97;5.90;;;18.60;99.90;;;;;;5016404;28;20906;-42
2021/08/19 08:02:02;;;;;;;7.30;5.37;;;18.60;99.90;;;;;;5017066;28;20445;-41
2021/08/19 08:04:30;;;;;;;9.43;4.90;;;18.60;99.90;;;;;;5017420;28;20856;-41
2021/08/19 08:06:56;;;;;;;7.73;5.50;;;18.60;99.90;;;;;;5024582;28;20905;-42
2021/08/19 08:09:23;;;;;;;11.87;5.90;;;18.70;99.90;;;;;;5036839;28;20444;-41
2021/08/19 08:11:50;;;;;;;5.47;4.60;;;18.60;99.90;;;;;;5037052;28;20475;-42
2021/08/19 08:14:17;;;;;;;5.77;4.57;;;18.70;99.90;;;;;;5037155;28;20441;-43
2021/08/19 08:16:43;;;;;;;10.33;5.40;;;18.70;99.90;;;;;;5037601;28;20448;-40
2021/08/19 08:19:10;;;;;;;7.30;5.30;;;18.70;99.90;;;;;;5036995;28;20889;-40
2021/08/19 08:21:39;;;;;;;6.53;4.90;;;18.70;99.90;;;;;;5037157;28;20797;-41
2021/08/19 08:24:06;;;;;;;7.63;5.60;;;18.80;99.90;;;;;;5037188;28;20444;-40
2021/08/19 08:26:33;;;;;;;6.10;5.07;;;18.70;99.90;;;;;;5036934;28;20470;-41
2021/08/19 08:29:00;;;;;;;6.10;4.87;;;18.70;99.90;;;;;;5036932;28;20448;-40
2021/08/19 08:31:27;;;;;;;6.30;5.20;;;18.70;99.90;;;;;;5037044;28;20449;-40
2021/08/19 08:33:54;;;;;;;4.30;3.90;;;18.70;99.90;;;;;;5036971;28;20467;-41
2021/08/19 08:36:22;;;;;;;8.57;5.40;;;18.80;99.90;;;;;;5036930;28;20459;-40
2021/08/19 08:38:50;;;;;;;7.10;4.67;;;18.90;99.90;;;;;;5037116;28;20470;-42
2021/08/19 08:41:19;;;;;;;5.90;5.13;;;19.00;99.90;;;;;;5036751;28;20467;-39
2021/08/19 08:43:47;;;;;;;10.67;4.63;;;18.90;99.90;;;;;;5036702;28;20449;-39
2021/08/19 08:46:16;;;;;;;7.23;4.80;;;18.90;99.90;;;;;;5036001;28;20960;-39
2021/08/19 08:48:44;;;;;;;7.47;5.07;;;18.90;99.90;;;;;;5036064;28;20460;-40
2021/08/19 08:51:11;;;;;;;6.00;5.40;;;18.90;99.90;;;;;;5025130;28;20468;-40
2021/08/19 08:53:40;;;;;;;7.00;4.70;;;18.90;99.90;;;;;;5016866;28;20453;-43
2021/08/19 08:56:08;;;;;;;5.43;4.50;;;18.90;99.90;;;;;;5016260;28;20445;-40
2021/08/19 08:58:35;;;;;;;6.87;4.80;;;19.00;99.90;;;;;;5016436;28;20461;-41
2021/08/19 09:01:03;;;;;;;5.80;5.00;;;19.00;99.90;;;;;;5016567;28;20467;-39
2021/08/19 09:03:30;;;;;;;6.40;4.80;;;19.10;99.90;;;;;;5016570;28;20544;-40
2021/08/19 09:05:56;;;;;;;6.03;4.70;;;19.20;99.90;;;;;;5016168;28;20515;-41
2021/08/19 09:08:26;;;;;;;8.20;5.13;;;19.20;99.90;;;;;;5016335;28;20465;-40
2021/08/19 09:10:55;;;;;;;6.40;4.97;;;19.20;99.90;;;;;;5029031;28;21122;-41
2021/08/19 09:13:24;;;;;;;6.30;5.73;;;19.20;99.90;;;;;;5036161;28;20550;-42
2021/08/19 09:15:52;;;;;;;8.00;4.97;;;19.20;99.90;;;;;;5035911;28;20452;-41
2021/08/19 09:18:31;;;;;;;7.87;4.77;;;19.40;99.90;;;;;;5035760;28;20455;-43
2021/08/19 09:20:59;;;;;;;8.07;4.50;;;19.40;99.90;;;;;;5031812;28;20445;-41
2021/08/19 09:23:26;;;;;;;4.93;4.40;;;19.40;99.90;;;;;;5025045;28;20494;-40
2021/08/19 09:25:53;;;;;;;5.17;4.30;;;19.40;99.90;;;;;;5024766;28;20472;-41
2021/08/19 09:28:23;;;;;;;5.30;4.60;;;19.50;99.90;;;;;;5017673;28;20469;-40
2021/08/19 09:30:53;;;;;;;4.90;4.07;;;19.50;99.90;;;;;;5034636;28;20457;-42
2021/08/19 09:33:24;;;;;;;6.67;4.93;;;19.50;99.90;;;;;;5032587;28;20893;-39
2021/08/19 09:35:53;;;;;;;6.00;5.27;;;19.50;99.90;;;;;;5025884;28;20436;-41
2021/08/19 09:38:22;;;;;;;6.30;4.70;;;19.60;99.90;;;;;;5024074;28;20801;-46
2021/08/19 09:41:11;;;;;;;6.67;5.00;;;19.60;99.90;;;;;;5034676;28;20768;-40
2021/08/19 09:43:42;;;;;;;4.83;4.00;;;19.60;99.90;;;;;;5030230;28;20440;-40
2021/08/19 09:46:10;;;;;;;6.07;5.23;;;19.60;99.90;;;;;;5034985;28;20569;-41
2021/08/19 09:48:37;;;;;;;7.10;5.67;;;19.70;99.90;;;;;;5035038;28;20932;-40
2021/08/19 09:51:19;;;;;;;8.13;4.90;;;19.70;99.90;;;;;;5034575;28;20455;-40
2021/08/19 09:53:48;;;;;;;8.87;7.17;;;19.60;99.90;;;;;;5034471;28;20510;-40
2021/08/19 09:56:28;;;;;;;8.23;6.27;;;19.50;99.90;;;;;;5021648;28;20489;-44
2021/08/19 09:59:16;;;;;;;9.13;5.80;;;19.50;99.90;;;;;;5016932;28;20450;-40
2021/08/19 10:01:44;;;;;;;8.53;6.13;;;19.60;99.90;;;;;;5022819;28;20541;-41
2021/08/19 10:04:11;;;;;;;9.53;5.83;;;19.60;99.90;;;;;;5036595;28;20969;-40
2021/08/19 10:06:39;;;;;;;8.00;5.03;;;19.70;99.90;;;;;;5033837;28;20479;-40
2021/08/19 10:09:08;;;;;;;6.93;5.00;;;19.80;99.90;;;;;;5039679;28;20445;-41
2021/08/19 10:11:36;;;;;;;5.57;4.27;;;19.90;99.90;;;;;;5026325;28;20527;-41
2021/08/19 10:14:06;;;;;;;7.80;4.57;;;19.80;99.90;;;;;;5022173;28;20448;-42
2021/08/19 10:16:36;;;;;;;4.90;4.17;;;19.90;99.90;;;;;;5033775;28;20498;-41
2021/08/19 10:19:09;;;;;;;5.23;4.43;;;19.90;99.90;;;;;;5023700;28;20453;-40
2021/08/19 10:21:38;;;;;;;6.80;5.23;;;20.00;99.90;;;;;;5037692;28;20448;-41
2021/08/19 10:24:07;;;;;;;5.63;4.77;;;20.10;99.90;;;;;;5037192;28;20452;-41
2021/08/19 10:26:34;;;;;;;4.27;3.80;;;20.30;99.90;;;;;;5036685;28;20800;-41
2021/08/19 10:29:03;;;;;;;6.77;4.90;;;20.60;99.90;;;;;;5026922;28;20510;-42
2021/08/19 10:31:46;;;;;;;5.20;4.70;;;20.80;99.90;;;;;;5020977;28;20448;-41
2021/08/19 10:34:15;;;;;;;6.10;5.33;;;21.00;99.90;;;;;;5025734;28;20453;-42
2021/08/19 10:36:55;;;;;;;6.53;5.13;;;21.20;99.90;;;;;;5023975;28;20884;-42
2021/08/19 10:39:44;;;;;;;5.37;4.80;;;21.30;99.90;;;;;;5034831;28;20436;-43
2021/08/19 10:42:28;;;;;;;6.73;4.80;;;21.40;99.90;;;;;;5027048;28;20528;-42
2021/08/19 10:44:54;;;;;;;7.53;5.00;;;21.40;99.90;;;;;;5031039;28;20537;-42
2021/08/19 10:47:37;;;;;;;6.30;5.20;;;21.30;99.90;;;;;;5030937;28;20778;-44
2021/08/19 10:50:27;;;;;;;6.13;4.90;;;21.20;99.90;;;;;;5033256;28;20443;-41
2021/08/19 10:52:55;;;;;;;11.00;5.70;;;21.00;99.90;;;;;;5030993;28;20444;-43
2021/08/19 10:55:22;;;;;;;9.23;4.67;;;20.90;99.90;;;;;;5031044;28;20448;-41
2021/08/19 10:57:51;;;;;;;10.20;6.07;;;20.70;99.90;;;;;;5033752;28;20827;-41
2021/08/19 11:00:34;;;;;;;7.17;5.07;;;20.60;99.90;;;;;;5034883;28;20440;-41
2021/08/19 11:03:03;;;;;;;6.77;5.30;;;20.50;99.90;;;;;;5031261;28;20437;-41
2021/08/19 11:05:55;;;;;;;6.53;4.90;;;20.50;99.90;;;;;;5022769;28;20488;-41
2021/08/19 11:08:41;;;;;;;7.37;5.60;;;20.50;99.90;;;;;;5016454;28;20471;-40
2021/08/19 11:11:09;;;;;;;8.37;4.70;;;20.60;99.90;;;;;;5020553;28;20449;-45
2021/08/19 11:13:37;;;;;;;6.37;5.77;;;20.70;99.90;;;;;;5020554;28;20441;-40
2021/08/19 11:16:08;;;;;;;7.13;4.30;;;20.70;99.90;;;;;;5020049;28;20468;-41
2021/08/19 11:18:37;;;;;;;5.70;5.20;;;20.80;99.90;;;;;;5019763;28;20480;-40
2021/08/19 11:21:06;;;;;;;6.50;4.40;;;20.90;99.90;;;;;;5019836;28;20444;-41
2021/08/19 11:23:36;;;;;;;9.23;5.57;;;20.90;99.90;;;;;;5019976;28;20449;-41
2021/08/19 11:26:06;;;;;;;4.70;4.30;;;21.10;99.90;;;;;;5019362;28;21166;-45
2021/08/19 11:28:41;;;;;;;6.33;4.50;;;21.30;99.90;;;;;;5019691;28;20445;-40
2021/08/19 11:31:17;;;;;;;6.00;5.40;;;21.30;99.90;;;;;;5019951;28;20485;-41
2021/08/19 11:33:46;;;;;;;5.33;4.17;;;21.30;99.90;;;;;;5020479;28;20774;-42
2021/08/19 11:36:14;;;;;;;5.40;4.50;;;21.20;99.90;;;;;;5019882;28;20544;-42
2021/08/19 11:38:42;;;;;;;5.83;3.90;;;21.20;99.90;;;;;;5019958;28;20901;-40
2021/08/19 11:41:18;;;;;;;7.73;4.57;;;21.40;99.90;;;;;;5019858;28;20511;-42
2021/08/19 11:43:46;;;;;;;5.10;4.40;;;21.40;99.90;;;;;;5019326;28;20497;-40
2021/08/19 11:46:16;;;;;;;10.63;4.27;;;21.60;99.90;;;;;;5019383;28;20484;-41
2021/08/19 11:48:50;;;;;;;5.10;4.23;;;21.90;99.90;;;;;;5018833;28;20433;-42
2021/08/19 11:51:27;;;;;;;4.00;3.40;;;22.10;99.90;;;;;;5019302;28;20472;-41
2021/08/19 11:53:55;;;;;;;4.23;3.83;;;22.00;99.90;;;;;;5026159;28;20537;-40
2021/08/19 11:56:25;;;;;;;5.10;4.30;;;22.10;99.90;;;;;;5038617;28;20452;-42
2021/08/19 11:58:59;;;;;;;4.40;3.60;;;22.00;99.90;;;;;;5038206;28;20920;-44
2021/08/19 12:01:26;;;;;;;6.00;4.50;;;22.00;99.90;;;;;;5039231;28;20492;-42
2021/08/19 12:03:55;;;;;;;5.80;4.63;;;21.80;99.90;;;;;;5038975;28;20564;-44
2021/08/19 12:06:27;;;;;;;7.03;4.70;;;21.80;99.90;;;;;;5038703;28;20488;-40
2021/08/19 12:08:55;;;;;;;8.90;7.10;;;21.80;99.90;;;;;;5038600;28;20456;-41
2021/08/19 12:11:24;;;;;;;6.00;4.70;;;21.90;99.90;;;;;;5040493;28;20460;-40
2021/08/19 12:13:51;;;;;;;8.33;4.80;;;21.80;99.90;;;;;;5040812;28;20458;-42
2021/08/19 12:16:20;;;;;;;7.00;5.50;;;21.80;99.90;;;;;;5040585;28;20440;-40
2021/08/19 12:19:10;;;;;;;7.30;4.67;;;21.80;99.90;;;;;;5041155;28;20460;-41
2021/08/19 12:21:38;;;;;;;7.23;4.30;;;21.70;99.90;;;;;;5040804;28;20852;-41
2021/08/19 12:24:14;;;;;;;9.40;6.13;;;21.60;99.90;;;;;;5041569;28;20459;-42
2021/08/19 12:26:42;;;;;;;5.93;4.47;;;21.60;99.90;;;;;;5040562;28;20472;-40
2021/08/19 12:29:18;;;;;;;4.97;4.50;;;21.70;99.90;;;;;;5041292;28;20456;-40
2021/08/19 12:31:47;;;;;;;5.10;4.13;;;21.70;99.90;;;;;;5040733;28;20507;-41
2021/08/19 12:34:16;;;;;;;6.87;4.10;;;21.60;99.90;;;;;;5040069;28;20452;-40
2021/08/19 12:36:43;;;;;;;7.00;4.43;;;21.50;99.90;;;;;;5021767;28;20461;-40
2021/08/19 12:39:18;;;;;;;6.33;3.80;;;21.60;99.90;;;;;;5021690;28;20490;-41
2021/08/19 12:41:46;;;;;;;6.90;4.37;;;21.50;99.90;;;;;;5020774;28;20460;-41
2021/08/19 12:44:17;;;;;;;6.47;3.90;;;21.60;99.90;;;;;;5020994;28;20449;-41
2021/08/19 12:46:46;;;;;;;6.80;5.13;;;21.90;99.90;;;;;;5021335;28;20480;-41
2021/08/19 12:49:25;;;;;;;13.73;4.10;;;22.20;99.90;;;;;;5020327;28;20532;-41
2021/08/19 12:52:12;;;;;;;4.70;4.10;;;22.30;99.90;;;;;;5020782;28;20948;-41